Time;durP1;ratioP1;P1;durP2;ratioP2;P2;SDS_P1;SDS_P2;PMS_P1;PMS_P2;Temp;Humidity;BMP_temperature;BMP_pressure;BME280_temperature;BME280_humidity;BME280_pressure;Samples;Min_cycle;Max_cycle;Signal;HPM_P1;HPM_P2
2021/09/18 00:04:43;;;;;;;55.83;31.83;;;;;;;13.82;100.00;101578.72;10498642;28;20049;-59
2021/09/18 00:09:46;;;;;;;53.85;31.80;;;;;;;13.74;100.00;101576.53;10497791;28;20056;-59
2021/09/18 00:14:48;;;;;;;41.25;26.80;;;;;;;13.80;100.00;101575.34;10497805;28;20049;-59
2021/09/18 00:19:50;;;;;;;60.97;33.10;;;;;;;13.72;100.00;101578.41;10497223;28;20051;-60
2021/09/18 00:24:53;;;;;;;59.97;34.42;;;;;;;13.75;100.00;101570.34;10503156;28;20053;-60
2021/09/18 00:29:55;;;;;;;54.05;33.67;;;;;;;13.77;100.00;101575.50;10505887;28;20051;-60
2021/09/18 00:34:57;;;;;;;61.78;37.78;;;;;;;13.71;100.00;101575.84;10505874;28;20052;-60
2021/09/18 00:40:00;;;;;;;62.15;39.45;;;;;;;13.64;100.00;101579.78;10505498;28;20067;-60
2021/09/18 00:45:03;;;;;;;70.10;41.05;;;;;;;13.63;100.00;101580.72;10505674;28;20060;-59
2021/09/18 00:50:06;;;;;;;65.53;38.97;;;;;;;13.70;100.00;101575.03;10505155;28;20143;-60
2021/09/18 00:55:09;;;;;;;64.10;37.42;;;;;;;13.64;100.00;101570.09;10505447;28;20045;-60
2021/09/18 01:00:15;;;;;;;72.13;39.72;;;;;;;13.57;100.00;101574.03;10504383;28;20492;-59
2021/09/18 01:05:18;;;;;;;64.57;40.80;;;;;;;13.62;100.00;101579.03;10503262;28;20484;-61
2021/09/18 01:10:20;;;;;;;70.78;41.25;;;;;;;13.51;100.00;101583.09;10503077;28;20048;-60
2021/09/18 01:15:23;;;;;;;82.00;43.10;;;;;;;13.40;100.00;101575.00;10504201;28;20060;-59
2021/09/18 01:20:27;;;;;;;76.00;41.67;;;;;;;13.33;100.00;101577.13;10503715;28;20044;-61
2021/09/18 01:25:32;;;;;;;67.40;40.65;;;;;;;13.35;100.00;101580.50;10504996;28;20048;-59
2021/09/18 01:30:35;;;;;;;62.95;39.92;;;;;;;13.36;100.00;101584.84;10503517;28;20511;-60
2021/09/18 01:35:38;;;;;;;79.15;43.28;;;;;;;13.29;100.00;101579.97;10503254;28;20051;-60
2021/09/18 01:40:43;;;;;;;57.97;36.00;;;;;;;13.27;100.00;101577.44;10501794;28;20508;-60
2021/09/18 01:45:46;;;;;;;65.93;38.53;;;;;;;13.15;100.00;101578.97;10502839;28;20052;-60
2021/09/18 01:50:54;;;;;;;66.13;37.65;;;;;;;13.12;100.00;101576.50;10502798;28;20045;-61
2021/09/18 01:55:57;;;;;;;66.70;38.70;;;;;;;13.16;100.00;101585.06;10502986;28;20060;-60
2021/09/18 02:01:00;;;;;;;60.42;35.00;;;;;;;13.15;100.00;101572.88;10501969;28;20049;-61
2021/09/18 02:06:03;;;;;;;52.47;33.58;;;;;;;13.06;100.00;101576.84;10503232;28;20083;-60
2021/09/18 02:11:06;;;;;;;59.63;35.03;;;;;;;13.11;100.00;101571.34;10501937;28;20049;-61
2021/09/18 02:16:08;;;;;;;55.45;33.30;;;;;;;13.02;100.00;101568.28;10501575;28;20054;-59
2021/09/18 02:21:10;;;;;;;48.55;30.50;;;;;;;13.03;100.00;101561.25;10502139;28;20408;-60
2021/09/18 02:26:13;;;;;;;57.30;36.03;;;;;;;12.93;100.00;101565.34;10501162;28;20071;-59
2021/09/18 02:31:15;;;;;;;56.63;34.67;;;;;;;12.87;100.00;101558.63;10501187;28;20048;-60
2021/09/18 02:36:18;;;;;;;59.88;33.53;;;;;;;12.89;100.00;101559.38;10500949;28;20048;-60
2021/09/18 02:41:20;;;;;;;48.78;29.67;;;;;;;12.89;100.00;101554.13;10500600;28;20047;-60
2021/09/18 02:46:22;;;;;;;33.50;23.20;;;;;;;12.73;100.00;101543.63;10499850;28;20063;-60
2021/09/18 02:51:25;;;;;;;29.00;21.73;;;;;;;12.74;100.00;101552.34;10500135;28;20051;-60
2021/09/18 02:56:27;;;;;;;27.83;20.65;;;;;;;12.70;100.00;101543.78;10499909;28;20508;-59
2021/09/18 03:01:29;;;;;;;25.75;18.67;;;;;;;12.69;100.00;101546.47;10499977;28;20127;-60
2021/09/18 03:06:32;;;;;;;24.83;18.55;;;;;;;12.72;100.00;101536.66;10499623;28;20056;-61
2021/09/18 03:11:34;;;;;;;26.27;19.52;;;;;;;12.47;100.00;101539.75;10499716;28;20050;-59
2021/09/18 03:16:36;;;;;;;23.55;18.05;;;;;;;12.39;100.00;101544.56;10499139;28;20052;-61
2021/09/18 03:21:39;;;;;;;21.55;17.05;;;;;;;12.34;100.00;101534.31;10498918;28;20532;-61
2021/09/18 03:26:43;;;;;;;25.38;18.45;;;;;;;12.21;100.00;101536.75;10499694;28;20044;-59
2021/09/18 03:31:45;;;;;;;19.13;16.35;;;;;;;12.33;100.00;101540.50;10499083;28;20044;-59
2021/09/18 03:36:48;;;;;;;20.98;16.15;;;;;;;12.39;100.00;101547.19;10498707;28;20048;-60
2021/09/18 03:41:50;;;;;;;69.10;26.67;;;;;;;12.09;100.00;101558.38;10498389;28;20048;-60
2021/09/18 03:46:52;;;;;;;116.00;29.98;;;;;;;11.87;100.00;101561.25;10498910;28;20412;-61
2021/09/18 03:51:55;;;;;;;48.47;25.45;;;;;;;12.19;100.00;101550.91;10498242;28;20044;-61
2021/09/18 03:56:57;;;;;;;81.80;26.92;;;;;;;12.41;100.00;101548.81;10498007;28;20056;-60
2021/09/18 04:01:59;;;;;;;31.60;25.45;;;;;;;12.19;100.00;101533.34;10498152;28;20049;-61
2021/09/18 04:07:02;;;;;;;30.73;22.73;;;;;;;12.29;100.00;101538.97;10497841;28;20500;-60
2021/09/18 04:12:05;;;;;;;32.53;24.17;;;;;;;12.26;100.00;101539.13;10498331;28;20051;-60
2021/09/18 04:17:07;;;;;;;27.75;22.67;;;;;;;12.29;100.00;101544.22;10497746;28;20057;-61
2021/09/18 04:22:09;;;;;;;31.98;24.00;;;;;;;12.16;100.00;101545.78;10497479;28;20459;-60
2021/09/18 04:27:12;;;;;;;38.83;26.63;;;;;;;12.12;100.00;101550.38;10496388;28;20488;-60
2021/09/18 04:32:14;;;;;;;40.47;26.27;;;;;;;12.11;100.00;101566.19;10497651;28;20481;-60
2021/09/18 04:37:17;;;;;;;37.97;26.58;;;;;;;12.06;100.00;101564.63;10497212;28;20518;-60
2021/09/18 04:42:19;;;;;;;47.40;31.88;;;;;;;12.18;100.00;101567.56;10497721;28;20048;-59
2021/09/18 04:47:21;;;;;;;46.83;30.48;;;;;;;12.24;100.00;101569.88;10497319;28;20044;-60
2021/09/18 04:52:24;;;;;;;45.78;29.17;;;;;;;12.32;100.00;101572.94;10497224;28;20127;-60
2021/09/18 04:57:26;;;;;;;50.72;29.35;;;;;;;12.32;100.00;101580.81;10496674;28;20056;-59
2021/09/18 05:02:28;;;;;;;56.03;34.08;;;;;;;12.27;100.00;101591.56;10496991;28;20045;-60
2021/09/18 05:07:31;;;;;;;73.65;35.50;;;;;;;12.37;100.00;101580.56;10496837;28;20047;-60
2021/09/18 05:12:33;;;;;;;152.68;35.00;;;;;;;12.37;100.00;101586.69;10504511;28;20051;-61
2021/09/18 05:17:37;;;;;;;97.65;34.20;;;;;;;12.11;100.00;101595.06;10504629;28;20045;-60
2021/09/18 05:22:39;;;;;;;46.47;23.45;;;;;;;12.07;100.00;101602.25;10504007;28;20056;-60
2021/09/18 05:27:42;;;;;;;57.80;28.75;;;;;;;12.33;100.00;101600.88;10486010;28;20051;-60
2021/09/18 05:32:44;;;;;;;79.28;24.73;;;;;;;12.54;100.00;101606.81;10502718;28;20040;-61
2021/09/18 05:37:46;;;;;;;204.93;35.28;;;;;;;12.36;100.00;101607.78;10503019;28;20057;-60
2021/09/18 05:42:49;;;;;;;112.72;30.75;;;;;;;12.39;100.00;101610.22;10503833;28;20171;-60
2021/09/18 05:47:51;;;;;;;173.65;33.85;;;;;;;12.56;100.00;101607.56;10503078;28;20051;-60
2021/09/18 05:52:53;;;;;;;188.80;34.30;;;;;;;12.59;100.00;101612.66;10502886;28;20055;-60
2021/09/18 05:57:56;;;;;;;140.05;35.33;;;;;;;12.71;100.00;101613.78;10502653;28;20044;-60
2021/09/18 06:02:58;;;;;;;208.48;38.38;;;;;;;12.35;100.00;101620.03;10502414;28;20497;-59
2021/09/18 06:08:01;;;;;;;56.42;29.50;;;;;;;12.52;100.00;101619.16;10502242;28;20094;-60
2021/09/18 06:13:03;;;;;;;63.30;32.85;;;;;;;12.67;100.00;101620.13;10502279;28;20127;-60
2021/09/18 06:18:06;;;;;;;48.33;30.60;;;;;;;12.91;100.00;101627.63;10502400;28;20055;-60
2021/09/18 06:23:08;;;;;;;85.15;32.40;;;;;;;12.70;100.00;101624.38;10501219;28;20072;-60
2021/09/18 06:28:10;;;;;;;79.47;33.47;;;;;;;12.67;100.00;101625.38;10501285;28;20381;-60
2021/09/18 06:33:12;;;;;;;150.48;40.55;;;;;;;12.22;100.00;101629.47;10501117;28;20049;-60
2021/09/18 06:38:21;;;;;;;75.13;33.30;;;;;;;12.39;100.00;101632.09;10500922;28;20052;-60
2021/09/18 06:43:24;;;;;;;104.30;37.08;;;;;;;12.29;100.00;101635.25;10501352;28;20054;-59
2021/09/18 06:48:26;;;;;;;269.30;46.72;;;;;;;12.39;100.00;101641.72;10500599;28;20055;-59
2021/09/18 06:53:28;;;;;;;164.13;34.95;;;;;;;12.24;100.00;101640.75;10500851;28;20488;-60
2021/09/18 06:58:31;;;;;;;230.32;42.60;;;;;;;12.44;100.00;101651.09;10499945;28;20415;-60
2021/09/18 07:03:33;;;;;;;141.15;42.03;;;;;;;12.68;100.00;101647.28;10498890;28;20056;-59
2021/09/18 07:08:37;;;;;;;117.97;32.05;;;;;;;12.98;100.00;101666.66;10500145;28;20044;-59
2021/09/18 07:13:39;;;;;;;83.80;27.85;;;;;;;12.73;100.00;101656.59;10499616;28;20082;-59
2021/09/18 07:18:42;;;;;;;83.25;26.73;;;;;;;13.27;100.00;101660.75;10499631;28;20059;-60
2021/09/18 07:23:45;;;;;;;163.98;32.78;;;;;;;13.22;100.00;101652.25;10499501;28;20048;-59
2021/09/18 07:28:47;;;;;;;137.65;28.00;;;;;;;13.24;100.00;101651.22;10499004;28;20059;-58
2021/09/18 07:33:50;;;;;;;89.20;24.70;;;;;;;13.19;100.00;101658.53;10498334;28;20510;-60
2021/09/18 07:38:52;;;;;;;184.00;28.50;;;;;;;13.31;100.00;101662.25;10498410;28;20048;-60
2021/09/18 07:44:00;;;;;;;255.93;30.85;;;;;;;13.43;100.00;101671.28;10499163;28;20055;-60
2021/09/18 07:49:02;;;;;;;155.77;23.42;;;;;;;13.26;100.00;101667.78;10498630;28;20063;-60
2021/09/18 07:54:05;;;;;;;105.40;24.73;;;;;;;13.90;100.00;101666.00;10498620;28;20048;-60
2021/09/18 07:59:07;;;;;;;58.78;19.40;;;;;;;14.41;100.00;101667.44;10498148;28;20048;-60
2021/09/18 08:04:10;;;;;;;49.13;22.52;;;;;;;14.55;100.00;101666.59;10498112;28;20528;-60
2021/09/18 08:09:12;;;;;;;28.73;19.38;;;;;;;14.66;100.00;101670.31;10497815;28;20484;-60
2021/09/18 08:14:15;;;;;;;88.75;21.65;;;;;;;14.93;100.00;101676.59;10497865;28;20044;-60
2021/09/18 08:19:19;;;;;;;21.33;19.13;;;;;;;15.33;100.00;101679.38;10497583;28;20494;-60
2021/09/18 08:24:21;;;;;;;49.08;24.98;;;;;;;15.33;100.00;101680.25;10497883;28;20058;-60
2021/09/18 08:29:23;;;;;;;21.05;18.95;;;;;;;15.54;100.00;101682.47;10497343;28;20055;-60
2021/09/18 08:34:26;;;;;;;21.88;18.50;;;;;;;15.55;100.00;101686.78;10498328;28;20051;-59
2021/09/18 08:39:28;;;;;;;28.00;21.35;;;;;;;15.10;100.00;101684.34;10497317;28;20040;-60
2021/09/18 08:44:31;;;;;;;27.30;22.60;;;;;;;14.99;100.00;101687.63;10500207;28;20416;-60
2021/09/18 08:49:34;;;;;;;25.58;21.30;;;;;;;15.61;100.00;101696.94;10505073;28;20049;-61
2021/09/18 08:54:40;;;;;;;31.27;25.23;;;;;;;15.63;100.00;101696.84;10505373;28;20066;-61
2021/09/18 08:59:43;;;;;;;41.60;29.58;;;;;;;15.37;100.00;101696.75;10504712;28;20488;-59
2021/09/18 09:04:46;;;;;;;45.28;31.23;;;;;;;16.04;100.00;101706.53;10504731;28;20485;-60
2021/09/18 09:09:57;;;;;;;67.32;42.05;;;;;;;15.49;100.00;101703.03;10504463;28;20040;-60
2021/09/18 09:15:06;;;;;;;46.78;33.50;;;;;;;15.94;100.00;101698.41;10504098;28;20048;-60
2021/09/18 09:20:25;;;;;;;56.58;38.25;;;;;;;16.92;100.00;101696.19;10504226;28;20052;-59
2021/09/18 09:25:28;;;;;;;47.58;36.65;;;;;;;17.89;100.00;101686.59;10504066;28;20520;-60
2021/09/18 09:30:35;;;;;;;48.15;34.75;;;;;;;17.37;100.00;101688.59;10503770;28;20041;-59
2021/09/18 09:35:38;;;;;;;55.38;38.88;;;;;;;16.99;100.00;101692.16;10504165;28;20044;-60
2021/09/18 09:40:41;;;;;;;54.97;38.95;;;;;;;16.68;100.00;101704.00;10503504;28;20056;-59
2021/09/18 09:45:48;;;;;;;53.20;38.95;;;;;;;17.70;100.00;101699.47;10503121;28;20563;-60
2021/09/18 09:51:02;;;;;;;47.92;37.60;;;;;;;17.93;100.00;101693.34;10503097;28;20056;-60
2021/09/18 09:56:25;;;;;;;47.17;38.85;;;;;;;19.37;99.11;101692.97;10502642;28;20052;-59
2021/09/18 10:01:28;;;;;;;43.78;37.85;;;;;;;20.85;85.45;101696.66;10502791;28;20175;-61
2021/09/18 10:06:31;;;;;;;53.30;39.97;;;;;;;19.40;91.59;101701.53;10501232;28;20052;-60
2021/09/18 10:11:34;;;;;;;43.85;37.17;;;;;;;20.16;89.52;101700.69;10501776;28;20400;-60
2021/09/18 10:16:36;;;;;;;42.67;34.85;;;;;;;20.01;88.74;101689.53;10502113;28;20044;-61
2021/09/18 10:27:20;;;;;;;35.30;31.50;;;;;;;22.95;75.50;101683.75;10502858;28;20053;-60
2021/09/18 10:32:24;;;;;;;39.25;33.03;;;;;;;21.82;82.32;101682.72;10501535;28;20048;-61
2021/09/18 10:37:37;;;;;;;32.22;28.85;;;;;;;21.87;81.86;101678.66;10500882;28;20049;-60
2021/09/18 10:42:45;;;;;;;27.35;24.55;;;;;;;23.27;76.11;101671.81;10501269;28;20047;-61
2021/09/18 10:47:50;;;;;;;22.88;20.67;;;;;;;25.19;67.36;101665.66;10501271;28;20057;-60
2021/09/18 10:53:06;;;;;;;26.35;23.67;;;;;;;25.07;67.72;101666.13;10499039;28;20489;-60
2021/09/18 10:58:09;;;;;;;23.00;20.60;;;;;;;22.98;67.77;101670.94;10500364;28;20076;-60
2021/09/18 11:03:11;;;;;;;21.75;19.55;;;;;;;25.06;62.88;101672.47;10500012;28;20499;-60
2021/09/18 11:08:14;;;;;;;20.33;18.27;;;;;;;25.29;65.05;101665.53;10499556;28;20067;-60
2021/09/18 11:13:17;;;;;;;21.50;19.35;;;;;;;24.69;62.42;101666.47;10499989;28;20049;-60
2021/09/18 11:18:52;;;;;;;19.90;17.85;;;;;;;24.75;61.21;101652.44;10499291;28;20404;-60
2021/09/18 11:23:56;;;;;;;23.90;21.50;;;;;;;24.76;61.19;101658.63;10491191;28;20060;-60
2021/09/18 11:29:28;;;;;;;23.20;20.85;;;;;;;24.15;65.23;101653.22;10498887;28;20060;-59
2021/09/18 11:34:32;;;;;;;23.70;21.23;;;;;;;24.82;66.94;101650.78;10498818;28;20044;-59
2021/09/18 11:39:42;;;;;;;20.85;18.75;;;;;;;23.84;63.15;101644.78;10499695;28;20048;-59
2021/09/18 11:44:50;;;;;;;23.25;20.77;;;;;;;23.79;60.89;101649.75;10498495;28;20052;-59
2021/09/18 11:49:53;;;;;;;22.08;19.48;;;;;;;24.46;62.26;101645.56;10498154;28;20056;-59
2021/09/18 11:54:55;;;;;;;29.05;22.92;;;;;;;23.54;66.98;101645.03;10498568;28;20044;-59
2021/09/18 12:00:12;;;;;;;24.58;20.77;;;;;;;24.31;66.55;101633.78;10498005;28;20496;-59
2021/09/18 12:05:16;;;;;;;20.17;16.75;;;;;;;25.46;61.74;101639.59;10498107;28;20048;-59
2021/09/18 12:10:22;;;;;;;25.75;22.92;;;;;;;23.98;66.95;101640.75;10498375;28;20118;-59
2021/09/18 12:15:34;;;;;;;22.98;20.58;;;;;;;24.71;59.13;101644.88;10497961;28;20045;-59
2021/09/18 12:20:39;;;;;;;22.58;18.55;;;;;;;26.79;55.17;101631.22;10504607;28;20053;-59
2021/09/18 12:25:41;;;;;;;17.63;15.65;;;;;;;24.13;57.50;101622.31;10506042;28;20404;-58
2021/09/18 12:30:44;;;;;;;16.70;15.10;;;;;;;26.80;55.19;101621.31;10506092;28;20374;-59
2021/09/18 12:35:48;;;;;;;22.83;19.73;;;;;;;24.51;56.16;101621.03;10506555;28;20048;-59
2021/09/18 12:40:51;;;;;;;21.38;17.98;;;;;;;25.59;56.31;101620.34;10505751;28;20048;-59
2021/09/18 12:46:04;;;;;;;19.90;17.88;;;;;;;25.67;53.84;101619.50;10505582;28;20063;-59
2021/09/18 12:51:11;;;;;;;20.27;17.98;;;;;;;26.84;54.23;101612.72;10505076;28;20052;-59
2021/09/18 12:56:24;;;;;;;24.83;20.65;;;;;;;26.36;54.57;101611.03;10505586;28;20045;-59
2021/09/18 13:01:39;;;;;;;20.38;18.23;;;;;;;24.32;59.67;101615.88;10504959;28;20040;-58
2021/09/18 13:06:57;;;;;;;17.23;15.48;;;;;;;23.76;69.04;101618.00;10505036;28;20090;-59
2021/09/18 13:12:24;;;;;;;20.73;15.43;;;;;;;23.36;61.88;101614.78;10504514;28;20063;-58
2021/09/18 13:17:32;;;;;;;17.40;15.27;;;;;;;24.28;60.70;101610.03;10504454;28;20045;-59
2021/09/18 13:22:40;;;;;;;20.98;15.85;;;;;;;23.51;62.27;101607.06;10503214;28;20404;-59
2021/09/18 13:27:44;;;;;;;14.68;13.05;;;;;;;24.81;55.28;101600.06;10503846;28;20443;-59
2021/09/18 13:32:46;;;;;;;14.82;11.77;;;;;;;26.14;55.31;101590.16;10503310;28;20051;-58
2021/09/18 13:37:49;;;;;;;12.68;11.35;;;;;;;26.54;55.49;101587.47;10504226;28;20045;-59
2021/09/18 13:42:51;;;;;;;15.70;11.57;;;;;;;23.32;54.85;101586.72;10503632;28;20048;-59
2021/09/18 13:47:53;;;;;;;9.27;8.23;;;;;;;26.86;52.00;101580.31;10503183;28;20059;-58
2021/09/18 13:52:56;;;;;;;8.88;7.32;;;;;;;24.01;54.04;101573.56;10503353;28;20051;-59
2021/09/18 13:57:58;;;;;;;7.38;5.85;;;;;;;27.16;55.18;101565.16;10501609;28;20052;-59
2021/09/18 14:03:03;;;;;;;7.18;6.47;;;;;;;25.52;55.16;101558.53;10502729;28;20044;-58
2021/09/18 14:08:06;;;;;;;7.53;6.82;;;;;;;25.61;59.48;101551.31;10502296;28;20143;-59
2021/09/18 14:13:10;;;;;;;8.02;7.22;;;;;;;25.73;50.57;101549.09;10501660;28;20048;-59
2021/09/18 14:18:12;;;;;;;8.13;7.30;;;;;;;25.78;51.72;101546.75;10501820;28;20480;-58
2021/09/18 14:23:15;;;;;;;9.40;7.20;;;;;;;25.30;47.31;101543.09;10501651;28;20045;-58
2021/09/18 14:28:18;;;;;;;7.32;6.47;;;;;;;26.14;51.85;101538.31;10501567;28;20048;-58
2021/09/18 14:33:20;;;;;;;6.05;5.45;;;;;;;27.48;48.92;101531.00;10501360;28;20495;-58
2021/09/18 14:38:23;;;;;;;8.63;7.70;;;;;;;25.65;51.07;101533.03;10501589;28;20045;-58
2021/09/18 14:43:25;;;;;;;7.28;6.55;;;;;;;27.21;52.97;101525.16;10500243;28;20049;-59
2021/09/18 14:48:28;;;;;;;9.07;8.18;;;;;;;27.45;49.74;101523.28;10500417;28;20053;-58
2021/09/18 14:53:30;;;;;;;10.15;7.75;;;;;;;25.43;49.65;101516.63;10501070;28;20040;-58
2021/09/18 14:58:34;;;;;;;7.10;6.40;;;;;;;28.15;47.26;101510.47;10500027;28;20048;-58
2021/09/18 15:03:36;;;;;;;9.95;7.75;;;;;;;26.44;49.55;101511.69;10500320;28;20051;-59
2021/09/18 15:08:39;;;;;;;10.73;9.73;;;;;;;25.99;53.02;101510.53;10499585;28;20531;-59
2021/09/18 15:13:41;;;;;;;11.13;10.02;;;;;;;27.90;47.60;101517.97;10500385;28;20123;-58
2021/09/18 15:18:44;;;;;;;13.65;12.25;;;;;;;24.56;57.89;101508.97;10499213;28;20049;-59
2021/09/18 15:23:47;;;;;;;14.27;12.20;;;;;;;24.44;56.30;101508.41;10499780;28;20063;-58
2021/09/18 15:28:49;;;;;;;13.27;11.93;;;;;;;24.40;56.49;101507.03;10499119;28;20492;-58
2021/09/18 15:33:51;;;;;;;12.95;11.55;;;;;;;24.23;56.95;101506.13;10498957;28;20459;-58
2021/09/18 15:38:54;;;;;;;12.00;10.13;;;;;;;23.77;61.04;101510.03;10498089;28;20052;-58
2021/09/18 15:43:56;;;;;;;12.10;9.80;;;;;;;22.76;65.95;101514.69;10498817;28;20047;-58
2021/09/18 15:48:59;;;;;;;13.18;9.60;;;;;;;23.15;64.13;101508.25;10480704;28;20055;-58
2021/09/18 15:54:01;;;;;;;14.40;10.07;;;;;;;22.44;65.94;101513.34;10498508;28;20047;-58
2021/09/18 15:59:03;;;;;;;12.77;11.50;;;;;;;22.14;67.60;101516.22;10497048;28;20047;-58
2021/09/18 16:04:06;;;;;;;12.20;11.13;;;;;;;21.86;70.76;101509.03;10497496;28;20048;-58
2021/09/18 16:09:08;;;;;;;13.63;12.23;;;;;;;21.23;71.66;101517.53;10498146;28;20115;-58
2021/09/18 16:14:11;;;;;;;12.10;10.90;;;;;;;21.17;71.18;101519.91;10498213;28;20142;-58
2021/09/18 16:19:13;;;;;;;10.45;9.23;;;;;;;21.40;70.30;101513.31;10496868;28;20055;-58
2021/09/18 16:24:16;;;;;;;11.18;8.93;;;;;;;21.21;74.65;101516.78;10497800;28;20052;-58
2021/09/18 16:29:18;;;;;;;14.90;9.30;;;;;;;21.04;76.53;101513.00;10497791;28;20059;-58
2021/09/18 16:34:20;;;;;;;11.95;10.20;;;;;;;20.72;75.50;101507.94;10497547;28;20056;-59
2021/09/18 16:39:23;;;;;;;9.40;8.50;;;;;;;20.32;74.87;101508.75;10497816;28;20052;-58
2021/09/18 16:44:25;;;;;;;9.57;8.00;;;;;;;19.98;80.68;101512.53;10497414;28;20052;-59
2021/09/18 16:49:27;;;;;;;12.18;9.38;;;;;;;20.11;80.43;101507.00;10497444;28;20045;-59
2021/09/18 16:54:30;;;;;;;9.55;8.65;;;;;;;19.54;81.89;101521.63;10497370;28;20044;-58
2021/09/18 16:59:32;;;;;;;12.73;8.70;;;;;;;19.21;83.72;101521.63;10496875;28;20045;-58
2021/09/18 17:04:34;;;;;;;10.52;8.55;;;;;;;18.91;86.19;101519.69;10499329;28;20052;-58
2021/09/18 17:09:37;;;;;;;9.90;7.18;;;;;;;18.64;89.14;101523.56;10504671;28;20044;-58
2021/09/18 17:14:39;;;;;;;14.55;7.50;;;;;;;18.49;90.74;101524.78;10505112;28;20048;-58
2021/09/18 17:19:42;;;;;;;8.48;7.03;;;;;;;18.16;95.16;101527.31;10504528;28;20044;-57
2021/09/18 17:24:44;;;;;;;9.25;6.53;;;;;;;17.89;95.28;101519.72;10504460;28;20063;-59
2021/09/18 17:29:46;;;;;;;9.30;7.68;;;;;;;17.70;96.19;101519.41;10503147;28;20044;-58
2021/09/18 17:34:55;;;;;;;7.80;6.32;;;;;;;17.58;98.50;101527.31;10503767;28;20058;-59
2021/09/18 17:39:58;;;;;;;7.35;6.53;;;;;;;17.38;100.00;101527.97;10504084;28;20048;-58
2021/09/18 17:45:00;;;;;;;7.28;6.57;;;;;;;17.15;100.00;101527.03;10503521;28;20049;-58
2021/09/18 17:50:03;;;;;;;7.72;6.93;;;;;;;16.99;100.00;101525.50;10503277;28;20044;-59
2021/09/18 17:55:06;;;;;;;8.70;6.45;;;;;;;16.78;100.00;101532.31;10502906;28;20040;-58
2021/09/18 18:00:14;;;;;;;9.02;6.53;;;;;;;16.81;100.00;101521.50;10502732;28;20106;-60
2021/09/18 18:05:16;;;;;;;11.48;6.10;;;;;;;16.59;100.00;101517.75;10502694;28;20052;-59
2021/09/18 18:10:19;;;;;;;10.93;7.15;;;;;;;16.35;100.00;101523.00;10502326;28;20501;-57
2021/09/18 18:15:21;;;;;;;8.88;5.90;;;;;;;16.39;100.00;101521.84;10501893;28;20510;-58
2021/09/18 18:20:24;;;;;;;6.43;5.57;;;;;;;16.15;100.00;101530.53;10501919;28;20041;-58
2021/09/18 18:25:27;;;;;;;6.45;5.90;;;;;;;16.10;100.00;101537.91;10502721;28;20079;-58
2021/09/18 18:30:29;;;;;;;7.30;6.15;;;;;;;15.90;100.00;101531.38;10501882;28;20056;-59
2021/09/18 18:35:32;;;;;;;9.02;6.75;;;;;;;15.83;100.00;101542.44;10501273;28;20055;-58
2021/09/18 18:40:35;;;;;;;7.40;6.70;;;;;;;15.63;100.00;101549.88;10501012;28;20044;-59
2021/09/18 18:45:37;;;;;;;12.15;8.38;;;;;;;15.71;100.00;101544.09;10501066;28;20048;-58
2021/09/18 18:50:40;;;;;;;7.32;6.70;;;;;;;15.85;100.00;101548.47;10500591;28;20128;-58
2021/09/18 18:55:42;;;;;;;9.88;7.72;;;;;;;15.29;100.00;101554.75;10499449;28;20044;-59
2021/09/18 19:00:46;;;;;;;11.98;8.40;;;;;;;15.35;100.00;101562.28;10500901;28;20041;-58
2021/09/18 19:05:48;;;;;;;8.93;7.80;;;;;;;15.21;100.00;101562.31;10500586;28;20079;-58
2021/09/18 19:10:51;;;;;;;8.23;7.50;;;;;;;15.17;100.00;101561.66;10499627;28;20044;-59
2021/09/18 19:15:53;;;;;;;8.80;7.80;;;;;;;15.09;100.00;101557.84;10500094;28;20045;-59
2021/09/18 19:20:56;;;;;;;9.23;7.47;;;;;;;14.99;100.00;101568.97;10499393;28;20047;-59
2021/09/18 19:25:58;;;;;;;10.70;9.60;;;;;;;14.93;100.00;101568.50;10500296;28;20056;-58
2021/09/18 19:31:01;;;;;;;8.65;7.72;;;;;;;15.00;100.00;101578.56;10498509;28;20048;-58
2021/09/18 19:36:05;;;;;;;12.77;8.77;;;;;;;14.83;100.00;101579.66;10499473;28;20102;-58
2021/09/18 19:41:07;;;;;;;11.32;9.98;;;;;;;14.74;100.00;101576.75;10498867;28;20056;-58
2021/09/18 19:46:11;;;;;;;10.20;9.20;;;;;;;14.71;100.00;101574.28;10498738;28;20048;-58
2021/09/18 19:51:13;;;;;;;11.27;9.18;;;;;;;14.58;100.00;101575.03;10498633;28;20479;-58
2021/09/18 19:56:15;;;;;;;10.05;9.05;;;;;;;14.48;100.00;101566.84;10498406;28;20047;-58
2021/09/18 20:01:18;;;;;;;13.98;11.55;;;;;;;14.42;100.00;101580.38;10498741;28;20048;-57
2021/09/18 20:06:20;;;;;;;11.20;10.10;;;;;;;14.46;100.00;101566.09;10498137;28;20385;-58
2021/09/18 20:11:23;;;;;;;12.40;11.10;;;;;;;14.64;100.00;101565.91;10498002;28;20044;-58
2021/09/18 20:16:25;;;;;;;13.15;10.52;;;;;;;14.39;100.00;101556.00;10497801;28;20048;-58
2021/09/18 20:21:28;;;;;;;11.48;10.02;;;;;;;14.22;100.00;101570.22;10497779;28;20102;-58
2021/09/18 20:26:30;;;;;;;17.60;11.93;;;;;;;14.20;100.00;101562.41;10497935;28;20052;-58
2021/09/18 20:31:33;;;;;;;13.68;11.80;;;;;;;14.05;100.00;101553.63;10497746;28;20048;-58
2021/09/18 20:36:35;;;;;;;15.73;12.45;;;;;;;14.05;100.00;101547.53;10498039;28;20044;-58
2021/09/18 20:41:38;;;;;;;15.93;11.55;;;;;;;14.11;100.00;101545.38;10502965;28;20488;-58
2021/09/18 20:46:40;;;;;;;16.55;12.00;;;;;;;13.91;100.00;101549.22;10505723;28;20083;-58
2021/09/18 20:51:43;;;;;;;15.90;12.68;;;;;;;13.99;100.00;101551.41;10505837;28;20075;-58
2021/09/18 20:56:46;;;;;;;16.92;11.18;;;;;;;13.77;100.00;101556.22;10504832;28;20480;-58
2021/09/18 21:06:53;;;;;;;11.18;10.05;;;;;;;13.73;100.00;101566.09;10503939;28;20083;-57
2021/09/18 21:11:55;;;;;;;11.35;9.65;;;;;;;13.75;100.00;101562.44;10504509;28;20045;-58
2021/09/18 21:16:58;;;;;;;12.27;9.80;;;;;;;13.62;100.00;101571.97;10503713;28;20048;-58
2021/09/18 21:22:00;;;;;;;10.68;9.55;;;;;;;13.68;100.00;101571.59;10504156;28;20045;-58
2021/09/18 21:27:04;;;;;;;11.68;9.63;;;;;;;13.93;100.00;101571.00;10504125;28;20060;-58
2021/09/18 21:32:06;;;;;;;11.30;10.20;;;;;;;13.55;100.00;101571.50;10503973;28;20060;-59
2021/09/18 21:37:09;;;;;;;9.18;8.20;;;;;;;13.68;100.00;101570.75;10503468;28;20053;-57
2021/09/18 21:42:11;;;;;;;11.63;9.10;;;;;;;13.38;100.00;101569.81;10503652;28;20052;-57
2021/09/18 21:47:13;;;;;;;9.43;8.43;;;;;;;13.45;100.00;101557.16;10503117;28;20053;-58
2021/09/18 21:52:16;;;;;;;11.57;9.07;;;;;;;13.27;100.00;101560.81;10502726;28;20066;-57
2021/09/18 21:57:18;;;;;;;17.70;10.70;;;;;;;13.17;100.00;101550.81;10502808;28;20489;-58
2021/09/18 22:02:20;;;;;;;12.23;8.68;;;;;;;13.13;100.00;101546.66;10502627;28;20051;-58
2021/09/18 22:07:24;;;;;;;10.02;9.00;;;;;;;13.14;100.00;101548.34;10502470;28;20052;-57
2021/09/18 22:12:27;;;;;;;11.43;10.20;;;;;;;12.99;100.00;101544.81;10502344;28;20050;-59
2021/09/18 22:17:30;;;;;;;12.68;9.70;;;;;;;13.00;100.00;101538.59;10502076;28;20071;-57
2021/09/18 22:22:32;;;;;;;11.52;10.02;;;;;;;12.99;100.00;101536.94;10501980;28;20048;-58
2021/09/18 22:27:35;;;;;;;11.40;9.25;;;;;;;12.91;100.00;101536.50;10502114;28;20053;-59
2021/09/18 22:32:38;;;;;;;16.88;11.88;;;;;;;12.77;100.00;101537.25;10501642;28;20464;-59
2021/09/18 22:37:40;;;;;;;15.70;9.77;;;;;;;12.75;100.00;101540.91;10501072;28;20401;-58
2021/09/18 22:42:42;;;;;;;12.80;9.75;;;;;;;12.66;100.00;101528.25;10501048;28;20489;-57
2021/09/18 22:47:45;;;;;;;12.77;10.23;;;;;;;12.72;100.00;101530.56;10500470;28;20049;-58
2021/09/18 22:52:47;;;;;;;10.07;9.02;;;;;;;12.66;100.00;101523.00;10501114;28;20047;-58